createdAt,value
2023-01-19T00:00:40.826Z,74.29
2023-01-19T00:01:40.771Z,70.01
2023-01-19T00:02:40.750Z,68.14
2023-01-19T00:03:40.729Z,70.69
2023-01-19T00:04:40.705Z,72.83
2023-01-19T00:05:40.722Z,70.36
2023-01-19T00:06:40.667Z,70.93
2023-01-19T00:07:40.645Z,69.23
2023-01-19T00:08:40.627Z,74.49
2023-01-19T00:09:40.610Z,71.02
2023-01-19T00:10:40.616Z,72.78
2023-01-19T00:11:40.572Z,74.11
2023-01-19T00:12:40.559Z,68.94
2023-01-19T00:13:40.531Z,74.05
2023-01-19T00:14:40.518Z,72.09
2023-01-19T00:15:40.519Z,73.22
2023-01-19T00:16:40.476Z,74.30
2023-01-19T00:17:40.455Z,72.31
2023-01-19T00:18:40.439Z,72.18
2023-01-19T00:19:40.427Z,67.63
2023-01-19T00:20:40.426Z,73.00
2023-01-19T00:21:40.888Z,73.50
2023-01-19T00:22:40.358Z,73.79
2023-01-19T00:23:40.343Z,72.56
2023-01-19T00:24:40.320Z,72.75
2023-01-19T00:25:40.330Z,73.93
2023-01-19T00:26:40.285Z,73.10
2023-01-19T00:27:40.262Z,73.12
2023-01-19T00:28:40.245Z,71.76
2023-01-19T00:29:40.225Z,69.28
2023-01-19T00:30:40.234Z,73.09
2023-01-19T00:31:40.199Z,72.34
2023-01-19T00:32:40.163Z,74.38
2023-01-19T00:33:40.142Z,72.81
2023-01-19T00:34:40.127Z,73.99
2023-01-19T00:35:40.140Z,72.33
2023-01-19T00:36:40.078Z,74.19
2023-01-19T00:37:40.065Z,73.59
2023-01-19T00:38:40.076Z,73.36
2023-01-19T00:39:40.032Z,74.79
2023-01-19T00:40:40.037Z,73.66
2023-01-19T00:41:39.978Z,71.13
2023-01-19T00:42:41.010Z,73.05
2023-01-19T00:43:39.944Z,74.39
2023-01-19T00:44:39.919Z,74.17
2023-01-19T00:45:40.041Z,70.70
2023-01-19T00:46:39.881Z,73.12
2023-01-19T00:47:39.868Z,74.91
2023-01-19T00:48:39.841Z,69.49
2023-01-19T00:49:39.827Z,69.38
2023-01-19T00:50:39.827Z,74.65
2023-01-19T00:51:39.778Z,74.18
2023-01-19T00:52:39.761Z,71.89
2023-01-19T00:53:39.740Z,71.54
2023-01-19T00:54:39.718Z,70.74
2023-01-19T00:55:39.724Z,72.62
2023-01-19T00:56:39.674Z,70.08
2023-01-19T00:57:39.656Z,70.58
2023-01-19T00:58:40.376Z,74.11
2023-01-19T00:59:39.615Z,67.77
2023-01-19T01:00:39.632Z,72.20
2023-01-19T01:01:45.002Z,73.46
2023-01-19T01:02:40.717Z,73.29
2023-01-19T01:03:39.563Z,69.96
2023-01-19T01:04:39.519Z,69.46
2023-01-19T01:05:39.539Z,71.61
2023-01-19T01:06:39.485Z,71.27
2023-01-19T01:07:39.466Z,73.68
2023-01-19T01:08:39.463Z,72.47
2023-01-19T01:09:39.425Z,74.30
2023-01-19T01:10:39.397Z,75.29
2023-01-19T01:11:39.379Z,72.92
2023-01-19T01:12:39.358Z,71.56
2023-01-19T01:13:39.359Z,73.90
2023-01-19T01:14:39.319Z,73.47
2023-01-19T01:15:39.293Z,69.79
2023-01-19T01:16:40.366Z,71.16
2023-01-19T01:17:40.260Z,71.98
2023-01-19T01:18:39.239Z,73.98
2023-01-19T01:19:39.215Z,68.79
2023-01-19T01:20:39.199Z,69.88
2023-01-19T01:21:39.209Z,70.61
2023-01-19T01:22:39.205Z,72.21
2023-01-19T01:23:39.151Z,72.14
2023-01-19T01:24:39.121Z,71.31
2023-01-19T01:25:39.100Z,72.50
2023-01-19T01:26:39.105Z,72.18
2023-01-19T01:27:39.062Z,72.99
2023-01-19T01:28:39.054Z,70.53
2023-01-19T01:29:39.023Z,73.36
2023-01-19T01:30:39.000Z,72.95
2023-01-19T01:31:39.084Z,72.95
2023-01-19T01:32:38.964Z,71.95
2023-01-19T01:33:40.737Z,71.19
2023-01-19T01:34:38.926Z,74.43
2023-01-19T01:35:38.903Z,75.26
2023-01-19T01:36:38.911Z,73.09
2023-01-19T01:37:38.869Z,72.51
2023-01-19T01:38:38.840Z,73.88
2023-01-19T01:39:38.829Z,74.54
2023-01-19T01:40:38.798Z,72.93
2023-01-19T01:41:38.805Z,71.54
2023-01-19T01:42:38.763Z,72.07
2023-01-19T01:43:38.740Z,71.79
2023-01-19T01:44:38.722Z,73.87
2023-01-19T01:45:38.750Z,73.93
2023-01-19T01:46:38.707Z,71.00
2023-01-19T01:47:38.668Z,73.40
2023-01-19T01:48:38.643Z,73.36
2023-01-19T01:49:38.623Z,73.04
2023-01-19T01:50:38.608Z,73.00
2023-01-19T01:51:38.652Z,75.03
2023-01-19T01:52:38.568Z,72.20
2023-01-19T01:53:38.555Z,69.78
2023-01-19T01:54:38.542Z,72.62
2023-01-19T01:55:38.518Z,73.09
2023-01-19T01:56:38.537Z,72.13
2023-01-19T01:57:38.475Z,72.51
2023-01-19T01:58:38.457Z,70.28
2023-01-19T01:59:38.438Z,67.61
2023-01-19T02:00:38.420Z,72.64
2023-01-19T02:01:38.480Z,71.61
2023-01-19T02:02:38.382Z,74.86
2023-01-19T02:03:38.390Z,67.53
2023-01-19T02:04:38.344Z,69.41
2023-01-19T02:05:38.331Z,71.32
2023-01-19T02:06:38.332Z,73.33
2023-01-19T02:07:38.286Z,71.27
2023-01-19T02:08:38.267Z,73.37
2023-01-19T02:09:38.249Z,71.04
2023-01-19T02:10:38.231Z,71.71
2023-01-19T02:11:38.238Z,71.52
2023-01-19T02:12:38.201Z,68.74
2023-01-19T02:13:38.177Z,72.61
2023-01-19T02:14:38.162Z,72.68
2023-01-19T02:15:38.136Z,72.27
2023-01-19T02:16:38.157Z,73.15
2023-01-19T02:17:38.098Z,73.66
2023-01-19T02:18:38.088Z,73.15
2023-01-19T02:19:38.075Z,73.72
2023-01-19T02:20:38.040Z,71.89
2023-01-19T02:21:38.050Z,73.93
2023-01-19T02:22:37.999Z,74.50
2023-01-19T02:23:37.992Z,75.28
2023-01-19T02:24:37.960Z,73.59
2023-01-19T02:25:37.952Z,72.74
2023-01-19T02:26:37.950Z,73.24
2023-01-19T02:27:37.906Z,72.66
2023-01-19T02:28:37.879Z,71.86
2023-01-19T02:29:37.891Z,73.13
2023-01-19T02:30:37.860Z,74.21
2023-01-19T02:31:37.854Z,74.62
2023-01-19T02:32:37.805Z,74.00
2023-01-19T02:33:37.781Z,74.31
2023-01-19T02:34:38.773Z,71.86
2023-01-19T02:35:37.747Z,71.06
2023-01-19T02:36:37.747Z,72.40
2023-01-19T02:37:37.711Z,76.03
2023-01-19T02:38:37.691Z,73.77
2023-01-19T02:39:37.671Z,71.74
2023-01-19T02:40:37.648Z,71.16
2023-01-19T02:41:37.651Z,71.56
2023-01-19T02:42:37.617Z,72.39
2023-01-19T02:43:37.592Z,73.13
2023-01-19T02:44:37.569Z,73.90
2023-01-19T02:45:37.551Z,74.77
2023-01-19T02:46:37.568Z,71.88
2023-01-19T02:47:37.506Z,70.08
2023-01-19T02:48:37.486Z,72.48
2023-01-19T02:49:37.469Z,74.07
2023-01-19T02:50:37.460Z,74.92
2023-01-19T02:51:37.450Z,73.44
2023-01-19T02:52:37.406Z,72.68
2023-01-19T02:53:37.392Z,73.22
2023-01-19T02:54:37.367Z,69.84
2023-01-19T02:55:37.344Z,73.27
2023-01-19T02:56:37.345Z,71.77
2023-01-19T02:57:37.303Z,73.01
2023-01-19T02:58:37.285Z,72.11
2023-01-19T02:59:37.268Z,72.82
2023-01-19T03:00:37.247Z,73.96
2023-01-19T03:01:37.396Z,68.82
2023-01-19T03:02:37.325Z,72.14
2023-01-19T03:03:37.180Z,73.45
2023-01-19T03:04:37.165Z,73.55
2023-01-19T03:05:37.145Z,72.34
2023-01-19T03:06:37.148Z,73.74
2023-01-19T03:07:37.094Z,71.77
2023-01-19T03:08:38.079Z,74.48
2023-01-19T03:09:37.062Z,70.70
2023-01-19T03:10:37.044Z,72.65
2023-01-19T03:11:37.045Z,72.29
2023-01-19T03:12:37.000Z,71.79
2023-01-19T03:13:36.990Z,74.64
2023-01-19T03:14:36.974Z,73.56
2023-01-19T03:15:36.956Z,73.80
2023-01-19T03:16:36.974Z,72.18
2023-01-19T03:17:36.900Z,73.50
2023-01-19T03:18:36.884Z,73.04
2023-01-19T03:19:36.869Z,72.55
2023-01-19T03:20:36.841Z,71.88
2023-01-19T03:21:36.860Z,75.69
2023-01-19T03:22:36.797Z,69.40
2023-01-19T03:23:36.783Z,71.79
2023-01-19T03:24:37.753Z,74.51
2023-01-19T03:25:37.738Z,70.21
2023-01-19T03:26:36.745Z,72.64
2023-01-19T03:27:36.701Z,72.48
2023-01-19T03:28:36.677Z,74.03
2023-01-19T03:29:36.680Z,69.97
2023-01-19T03:30:36.645Z,69.12
2023-01-19T03:31:36.647Z,75.01
2023-01-19T03:32:36.598Z,74.27
2023-01-19T03:33:36.583Z,73.34
2023-01-19T03:34:36.557Z,73.20
2023-01-19T03:35:36.540Z,72.62
2023-01-19T03:36:36.544Z,72.08
2023-01-19T03:37:36.494Z,72.77
2023-01-19T03:38:36.481Z,71.92
2023-01-19T03:39:36.457Z,73.59
2023-01-19T03:40:36.440Z,73.07
2023-01-19T03:41:36.444Z,73.70
2023-01-19T03:42:36.398Z,72.64
2023-01-19T03:43:36.374Z,73.71
2023-01-19T03:44:36.355Z,73.72
2023-01-19T03:45:36.363Z,73.46
2023-01-19T03:46:36.348Z,74.12
2023-01-19T03:47:36.310Z,71.95
2023-01-19T03:48:36.278Z,72.67
2023-01-19T03:49:36.256Z,75.07
2023-01-19T03:50:36.267Z,75.40
2023-01-19T03:51:36.253Z,74.11
2023-01-19T03:52:36.195Z,75.35
2023-01-19T03:53:36.176Z,73.79
2023-01-19T03:54:36.162Z,72.14
2023-01-19T03:55:36.135Z,73.17
2023-01-19T03:56:36.114Z,74.40
2023-01-19T03:57:36.121Z,73.03
2023-01-19T03:58:36.075Z,74.62
2023-01-19T03:59:36.058Z,72.65
2023-01-19T04:00:36.039Z,74.85
2023-01-19T04:01:36.088Z,76.48
2023-01-19T04:02:36.042Z,74.64
2023-01-19T04:03:35.976Z,73.10
2023-01-19T04:04:35.964Z,74.02
2023-01-19T04:05:35.938Z,73.34
2023-01-19T04:06:35.915Z,74.19
2023-01-19T04:07:35.924Z,76.42
2023-01-19T04:08:35.875Z,76.93
2023-01-19T04:09:35.856Z,76.49
2023-01-19T04:10:35.838Z,74.23
2023-01-19T04:11:35.815Z,73.94
2023-01-19T04:12:35.816Z,77.37
2023-01-19T04:13:35.777Z,75.53
2023-01-19T04:14:35.759Z,73.48
2023-01-19T04:15:35.799Z,74.84
2023-01-19T04:16:35.720Z,76.50
2023-01-19T04:17:35.751Z,74.51
2023-01-19T04:18:35.681Z,74.19
2023-01-19T04:19:35.650Z,75.09
2023-01-19T04:20:36.646Z,72.59
2023-01-19T04:21:35.623Z,74.62
2023-01-19T04:22:35.624Z,75.73
2023-01-19T04:23:35.581Z,75.49
2023-01-19T04:24:35.563Z,75.13
2023-01-19T04:25:37.887Z,77.96
2023-01-19T04:26:35.522Z,76.45
2023-01-19T04:27:35.525Z,74.10
2023-01-19T04:28:35.481Z,75.50
2023-01-19T04:29:35.474Z,75.36
2023-01-19T04:30:35.449Z,76.61
2023-01-19T04:31:35.468Z,76.54
2023-01-19T04:32:35.430Z,74.07
2023-01-19T04:33:35.413Z,76.99
2023-01-19T04:34:35.372Z,75.57
2023-01-19T04:35:35.346Z,75.45
2023-01-19T04:36:35.324Z,76.69
2023-01-19T04:37:35.333Z,75.50
2023-01-19T04:38:35.280Z,75.87
2023-01-19T04:39:35.266Z,76.12
2023-01-19T04:40:35.243Z,76.13
2023-01-19T04:41:35.224Z,76.43
2023-01-19T04:42:35.232Z,77.36
2023-01-19T04:43:35.186Z,76.11
2023-01-19T04:44:35.167Z,75.08
2023-01-19T04:45:35.145Z,77.47
2023-01-19T04:46:35.203Z,77.12
2023-01-19T04:47:35.135Z,76.50
2023-01-19T04:48:35.716Z,76.27
2023-01-19T04:49:35.085Z,77.29
2023-01-19T04:50:35.045Z,73.12
2023-01-19T04:51:35.030Z,76.60
2023-01-19T04:52:35.160Z,74.94
2023-01-19T04:53:34.989Z,75.45
2023-01-19T04:54:35.004Z,75.92
2023-01-19T04:55:34.951Z,76.47
2023-01-19T04:56:34.934Z,76.05
2023-01-19T04:57:34.953Z,74.97
2023-01-19T04:58:34.894Z,75.94
2023-01-19T04:59:34.874Z,77.41
2023-01-19T05:00:34.857Z,75.66
2023-01-19T05:01:34.920Z,74.75
2023-01-19T05:02:34.953Z,74.33
2023-01-19T05:03:34.796Z,76.68
2023-01-19T05:04:34.780Z,77.45
2023-01-19T05:05:34.756Z,76.17
2023-01-19T05:06:34.757Z,77.63
2023-01-19T05:07:34.742Z,77.60
2023-01-19T05:08:34.701Z,77.31
2023-01-19T05:09:34.679Z,75.93
2023-01-19T05:10:34.663Z,76.44
2023-01-19T05:11:34.646Z,76.44
2023-01-19T05:12:34.651Z,76.93
2023-01-19T05:13:34.606Z,75.98
2023-01-19T05:14:34.585Z,74.37
2023-01-19T05:15:34.569Z,77.07
2023-01-19T05:16:34.568Z,74.94
2023-01-19T05:17:34.581Z,75.24
2023-01-19T05:18:34.510Z,76.02
2023-01-19T05:19:34.490Z,77.11
2023-01-19T05:20:34.472Z,77.91
2023-01-19T05:21:34.453Z,76.31
2023-01-19T05:22:34.457Z,76.05
2023-01-19T05:23:34.412Z,76.04
2023-01-19T05:24:34.397Z,76.77
2023-01-19T05:25:34.377Z,75.62
2023-01-19T05:26:34.355Z,76.17
2023-01-19T05:27:34.359Z,76.60
2023-01-19T05:28:34.314Z,74.99
2023-01-19T05:29:34.291Z,75.21
2023-01-19T05:30:34.336Z,76.88
2023-01-19T05:31:34.340Z,76.36
2023-01-19T05:32:34.259Z,75.53
2023-01-19T05:33:34.214Z,77.22
2023-01-19T05:34:34.192Z,76.20
2023-01-19T05:35:36.202Z,76.12
2023-01-19T05:36:35.155Z,75.18
2023-01-19T05:37:34.169Z,75.16
2023-01-19T05:38:35.559Z,75.97
2023-01-19T05:39:35.099Z,76.44
2023-01-19T05:40:34.082Z,75.88
2023-01-19T05:41:34.075Z,75.63
2023-01-19T05:42:34.074Z,74.15
2023-01-19T05:43:34.027Z,77.44
2023-01-19T05:44:34.006Z,76.11
2023-01-19T05:45:34.035Z,76.70
2023-01-19T05:46:34.019Z,76.60
2023-01-19T05:47:33.964Z,76.27
2023-01-19T05:48:33.930Z,76.19
2023-01-19T05:49:33.900Z,76.79
2023-01-19T05:50:33.884Z,78.65
2023-01-19T05:51:33.858Z,77.18
2023-01-19T05:52:33.868Z,77.38
2023-01-19T05:53:33.821Z,75.82
2023-01-19T05:54:33.816Z,76.64
2023-01-19T05:55:33.786Z,76.46
2023-01-19T05:56:33.776Z,74.98
2023-01-19T05:57:33.791Z,74.27
2023-01-19T05:58:33.729Z,76.31
2023-01-19T05:59:33.717Z,76.91
2023-01-19T06:00:33.691Z,76.97
2023-01-19T06:01:33.677Z,78.12
2023-01-19T06:02:33.685Z,76.60
2023-01-19T06:03:33.685Z,75.66
2023-01-19T06:04:33.626Z,76.62
2023-01-19T06:05:33.600Z,76.61
2023-01-19T06:06:33.574Z,74.04
2023-01-19T06:07:33.586Z,76.12
2023-01-19T06:08:33.542Z,76.34
2023-01-19T06:09:33.514Z,76.30
2023-01-19T06:10:33.496Z,76.45
2023-01-19T06:11:33.476Z,76.47
2023-01-19T06:12:33.504Z,74.58
2023-01-19T06:13:33.441Z,77.30
2023-01-19T06:14:33.419Z,77.15
2023-01-19T06:15:33.403Z,77.14
2023-01-19T06:16:33.424Z,76.25
2023-01-19T06:17:33.385Z,76.87
2023-01-19T06:18:33.342Z,76.43
2023-01-19T06:19:33.312Z,77.42
2023-01-19T06:20:34.300Z,76.60
2023-01-19T06:21:33.282Z,77.87
2023-01-19T06:22:33.287Z,75.01
2023-01-19T06:23:33.238Z,76.54
2023-01-19T06:24:34.226Z,76.88
2023-01-19T06:25:33.220Z,76.71
2023-01-19T06:26:33.193Z,76.61
2023-01-19T06:27:33.194Z,75.35
2023-01-19T06:28:33.144Z,76.77
2023-01-19T06:29:33.127Z,77.08
2023-01-19T06:30:33.130Z,77.55
2023-01-19T06:31:33.123Z,78.66
2023-01-19T06:32:33.100Z,78.23
2023-01-19T06:33:33.045Z,77.78
2023-01-19T06:34:33.031Z,76.08
2023-01-19T06:35:33.009Z,76.68
2023-01-19T06:36:33.009Z,77.17
2023-01-19T06:37:32.994Z,76.01
2023-01-19T06:38:32.956Z,76.78
2023-01-19T06:39:32.929Z,76.62
2023-01-19T06:40:32.912Z,77.67
2023-01-19T06:41:32.896Z,77.53
2023-01-19T06:42:32.901Z,75.47
2023-01-19T06:43:32.858Z,75.58
2023-01-19T06:44:32.848Z,77.79
2023-01-19T06:45:32.859Z,76.27
2023-01-19T06:46:32.789Z,77.08
2023-01-19T06:47:32.801Z,75.58
2023-01-19T06:48:32.769Z,75.48
2023-01-19T06:49:32.732Z,79.04
2023-01-19T06:50:32.721Z,76.00
2023-01-19T06:51:32.708Z,75.66
2023-01-19T06:52:32.824Z,76.70
2023-01-19T06:53:32.652Z,75.79
2023-01-19T06:54:32.632Z,75.98
2023-01-19T06:55:32.611Z,76.71
2023-01-19T06:56:32.599Z,77.50
2023-01-19T06:57:32.603Z,77.58
2023-01-19T06:58:32.556Z,76.38
2023-01-19T06:59:32.545Z,77.57
2023-01-19T07:00:32.521Z,76.57
2023-01-19T07:01:32.647Z,77.65
2023-01-19T07:02:32.655Z,75.92
2023-01-19T07:03:32.486Z,74.16
2023-01-19T07:04:32.432Z,76.28
2023-01-19T07:05:32.433Z,75.68
2023-01-19T07:06:32.396Z,77.32
2023-01-19T07:07:32.402Z,75.26
2023-01-19T07:08:32.356Z,75.82
2023-01-19T07:09:32.332Z,75.48
2023-01-19T07:11:25.108Z,75.60
2023-01-19T07:11:33.359Z,75.67
2023-01-19T07:12:32.302Z,77.03
2023-01-19T07:13:33.164Z,74.69
2023-01-19T07:14:32.227Z,76.49
2023-01-19T07:15:32.208Z,76.10
2023-01-19T07:16:32.213Z,77.28
2023-01-19T07:17:32.197Z,77.14
2023-01-19T07:18:32.151Z,76.94
2023-01-19T07:19:32.131Z,76.58
2023-01-19T07:20:32.132Z,76.55
2023-01-19T07:21:32.095Z,75.83
2023-01-19T07:22:32.112Z,76.78
2023-01-19T07:23:32.080Z,77.45
2023-01-19T07:24:32.035Z,77.02
2023-01-19T07:25:32.029Z,76.36
2023-01-19T07:26:31.992Z,76.26
2023-01-19T07:27:31.977Z,76.34
2023-01-19T07:28:31.975Z,75.20
2023-01-19T07:29:31.938Z,77.19
2023-01-19T07:30:31.944Z,76.33
2023-01-19T07:31:32.010Z,76.27
2023-01-19T07:32:31.886Z,74.96
2023-01-19T07:33:31.882Z,75.83
2023-01-19T07:34:31.837Z,75.28
2023-01-19T07:35:31.815Z,75.02
2023-01-19T07:36:31.810Z,75.60
2023-01-19T07:37:31.777Z,77.47
2023-01-19T07:38:31.779Z,75.82
2023-01-19T07:39:31.735Z,75.92
2023-01-19T07:40:31.713Z,75.21
2023-01-19T07:41:31.694Z,74.78
2023-01-19T07:42:31.675Z,75.33
2023-01-19T07:43:31.685Z,76.88
2023-01-19T07:44:31.637Z,76.51
2023-01-19T07:45:31.615Z,73.89
2023-01-19T07:46:31.596Z,75.84
2023-01-19T07:47:31.563Z,75.01
2023-01-19T07:48:32.585Z,74.86
2023-01-19T07:49:31.548Z,75.75
2023-01-19T07:50:31.521Z,75.25
2023-01-19T07:51:31.492Z,77.03
2023-01-19T07:52:32.486Z,74.48
2023-01-19T07:53:31.491Z,75.38
2023-01-19T07:54:31.446Z,77.12
2023-01-19T07:55:31.427Z,74.72
2023-01-19T07:56:32.829Z,76.13
2023-01-19T07:57:32.418Z,77.18
2023-01-19T07:58:31.401Z,71.70
2023-01-19T07:59:31.356Z,76.20
2023-01-19T08:00:31.343Z,75.58
2023-01-19T08:01:31.546Z,74.97
2023-01-19T08:02:31.351Z,74.56
2023-01-19T08:03:31.305Z,74.70
2023-01-19T08:04:31.286Z,76.42
2023-01-19T08:05:31.245Z,74.05
2023-01-19T08:06:31.229Z,73.53
2023-01-19T08:07:31.208Z,76.99
2023-01-19T08:08:31.218Z,74.72
2023-01-19T08:09:31.173Z,75.41
2023-01-19T08:10:31.153Z,75.15
2023-01-19T08:11:31.144Z,75.18
2023-01-19T08:12:31.120Z,75.07
2023-01-19T08:13:31.133Z,75.15
2023-01-19T08:14:31.081Z,75.13
2023-01-19T08:15:31.136Z,75.85
2023-01-19T08:16:31.051Z,75.94
2023-01-19T08:17:31.029Z,75.44
2023-01-19T08:18:31.053Z,76.26
2023-01-19T08:19:30.987Z,76.11
2023-01-19T08:20:30.992Z,73.65
2023-01-19T08:21:30.951Z,75.10
2023-01-19T08:22:30.934Z,75.54
2023-01-19T08:23:30.944Z,74.38
2023-01-19T08:24:30.896Z,76.27
2023-01-19T08:25:30.879Z,75.21
2023-01-19T08:26:30.862Z,75.49
2023-01-19T08:27:30.842Z,76.03
2023-01-19T08:28:30.840Z,75.84
2023-01-19T08:29:30.817Z,74.71
2023-01-19T08:30:30.781Z,74.47
2023-01-19T08:31:30.847Z,75.31
2023-01-19T08:32:30.764Z,75.26
2023-01-19T08:33:30.750Z,74.28
2023-01-19T08:34:30.696Z,75.48
2023-01-19T08:35:30.676Z,76.02
2023-01-19T08:36:30.684Z,76.19
2023-01-19T08:37:31.818Z,76.36
2023-01-19T08:38:30.647Z,76.69
2023-01-19T08:39:30.603Z,74.97
2023-01-19T08:40:30.589Z,75.72
2023-01-19T08:41:30.565Z,74.44
2023-01-19T08:42:30.550Z,73.59
2023-01-19T08:43:30.564Z,76.22
2023-01-19T08:44:30.528Z,76.30
2023-01-19T08:45:30.492Z,75.61
2023-01-19T08:46:30.479Z,75.05
2023-01-19T08:47:30.486Z,74.82
2023-01-19T08:48:30.462Z,75.10
2023-01-19T08:49:30.431Z,74.25
2023-01-19T08:50:30.426Z,75.04
2023-01-19T08:51:30.390Z,73.74
2023-01-19T08:52:30.372Z,74.03
2023-01-19T08:53:30.371Z,75.60
2023-01-19T08:54:30.356Z,74.28
2023-01-19T08:55:30.336Z,74.94
2023-01-19T08:56:30.294Z,76.87
2023-01-19T08:57:30.274Z,74.44
2023-01-19T08:58:30.282Z,72.73
2023-01-19T08:59:30.240Z,73.96
2023-01-19T09:00:30.216Z,75.53
2023-01-19T09:01:30.281Z,75.88
2023-01-19T09:02:30.235Z,73.07
2023-01-19T09:03:30.191Z,75.02
2023-01-19T09:04:30.152Z,74.27
2023-01-19T09:05:30.128Z,73.66
2023-01-19T09:06:30.107Z,74.48
2023-01-19T09:07:32.438Z,76.75
2023-01-19T09:08:30.086Z,75.82
2023-01-19T09:09:31.061Z,75.34
2023-01-19T09:10:30.031Z,74.47
2023-01-19T09:11:30.015Z,75.45
2023-01-19T09:12:29.992Z,74.02
2023-01-19T09:13:30.006Z,74.93
2023-01-19T09:14:29.963Z,76.54
2023-01-19T09:15:29.948Z,74.74
2023-01-19T09:16:29.928Z,76.25
2023-01-19T09:17:29.902Z,74.29
2023-01-19T09:18:29.914Z,76.53
2023-01-19T09:19:29.872Z,76.44
2023-01-19T09:20:29.853Z,76.41
2023-01-19T09:21:29.839Z,75.59
2023-01-19T09:22:29.825Z,74.58
2023-01-19T09:23:29.823Z,73.27
2023-01-19T09:24:29.787Z,77.48
2023-01-19T09:25:29.785Z,75.69
2023-01-19T09:26:31.649Z,75.82
2023-01-19T09:27:29.813Z,76.78
2023-01-19T09:28:29.749Z,75.32
2023-01-19T09:29:29.689Z,75.84
2023-01-19T09:30:29.669Z,76.89
2023-01-19T09:31:29.800Z,73.52
2023-01-19T09:32:29.630Z,75.66
2023-01-19T09:33:29.642Z,75.46
2023-01-19T09:34:29.598Z,75.42
2023-01-19T09:35:29.588Z,76.31
2023-01-19T09:36:29.556Z,75.42
2023-01-19T09:37:29.542Z,75.74
2023-01-19T09:38:29.578Z,75.30
2023-01-19T09:39:29.535Z,76.16
2023-01-19T09:40:29.497Z,73.75
2023-01-19T09:41:29.468Z,74.58
2023-01-19T09:42:29.453Z,75.02
2023-01-19T09:43:30.265Z,74.55
2023-01-19T09:44:29.414Z,74.20
2023-01-19T09:45:29.392Z,75.82
2023-01-19T09:46:29.417Z,76.35
2023-01-19T09:47:29.353Z,75.05
2023-01-19T09:48:29.363Z,75.37
2023-01-19T09:49:29.317Z,75.81
2023-01-19T09:50:29.299Z,75.93
2023-01-19T09:51:29.278Z,73.62
2023-01-19T09:52:29.263Z,74.76
2023-01-19T09:53:29.270Z,74.55
2023-01-19T09:54:29.230Z,76.37
2023-01-19T09:55:29.208Z,75.76
2023-01-19T09:56:29.196Z,75.03
2023-01-19T09:57:29.174Z,73.97
2023-01-19T09:58:30.767Z,75.12
2023-01-19T09:59:29.136Z,76.23
2023-01-19T10:00:29.168Z,74.22
2023-01-19T10:01:29.226Z,75.23
2023-01-19T10:02:29.094Z,76.30
2023-01-19T10:03:29.154Z,75.73
2023-01-19T10:04:29.054Z,76.74
2023-01-19T10:05:29.023Z,76.34
2023-01-19T10:06:29.005Z,75.89
2023-01-19T10:07:28.987Z,73.91
2023-01-19T10:08:28.994Z,75.14
2023-01-19T10:09:28.955Z,74.16
2023-01-19T10:10:28.931Z,74.88
2023-01-19T10:11:34.523Z,74.73
2023-01-19T10:12:30.891Z,75.68
2023-01-19T10:13:28.925Z,75.54
2023-01-19T10:14:28.889Z,75.16
2023-01-19T10:15:28.849Z,74.02
2023-01-19T10:16:28.859Z,74.33
2023-01-19T10:17:28.800Z,75.17
2023-01-19T10:18:28.814Z,74.40
2023-01-19T10:19:28.772Z,73.89
2023-01-19T10:20:28.747Z,73.80
2023-01-19T10:21:28.727Z,75.19
2023-01-19T10:22:28.739Z,77.26
2023-01-19T10:23:28.690Z,75.37
2023-01-19T10:24:28.715Z,75.55
2023-01-19T10:25:28.667Z,73.67
2023-01-19T10:26:28.650Z,75.65
2023-01-19T10:27:28.620Z,74.95
2023-01-19T10:28:28.599Z,73.45
2023-01-19T10:29:28.619Z,74.95
2023-01-19T10:30:29.582Z,74.34
2023-01-19T10:31:28.668Z,74.52
2023-01-19T10:32:28.526Z,75.43
2023-01-19T10:33:28.552Z,74.98
2023-01-19T10:34:28.513Z,73.63
2023-01-19T10:35:28.667Z,74.23
2023-01-19T10:36:28.471Z,73.35
2023-01-19T10:37:28.570Z,72.94
2023-01-19T10:38:28.524Z,75.97
2023-01-19T10:39:28.485Z,76.83
2023-01-19T10:40:28.494Z,75.13
2023-01-19T10:41:28.462Z,74.29
2023-01-19T10:42:28.368Z,74.40
2023-01-19T10:43:28.415Z,73.30
2023-01-19T10:44:28.354Z,74.00
2023-01-19T10:45:28.334Z,72.56
2023-01-19T10:46:28.269Z,74.47
2023-01-19T10:47:28.306Z,73.86
2023-01-19T10:48:28.260Z,74.99
2023-01-19T10:49:28.245Z,74.26
2023-01-19T10:50:28.195Z,74.89
2023-01-19T10:51:28.190Z,74.26
2023-01-19T10:52:28.162Z,73.90
2023-01-19T10:53:28.140Z,73.98
2023-01-19T10:54:28.149Z,75.97
2023-01-19T10:55:28.103Z,72.69
2023-01-19T10:56:28.131Z,73.51
2023-01-19T10:57:28.076Z,71.67
2023-01-19T10:58:28.045Z,73.43
2023-01-19T10:59:28.065Z,75.50
2023-01-19T11:00:28.069Z,73.61
2023-01-19T11:01:28.162Z,75.35
2023-01-19T11:02:28.224Z,74.58
2023-01-19T11:03:28.051Z,75.41
2023-01-19T11:04:28.065Z,74.24
2023-01-19T11:05:27.945Z,74.24
2023-01-19T11:06:27.905Z,69.25
2023-01-19T11:07:27.892Z,72.48
2023-01-19T11:08:27.869Z,74.35
2023-01-19T11:09:27.879Z,75.34
2023-01-19T11:10:27.836Z,74.54
2023-01-19T11:11:27.813Z,76.30
2023-01-19T11:12:27.797Z,73.80
2023-01-19T11:13:27.780Z,77.86
2023-01-19T11:14:27.785Z,75.49
2023-01-19T11:15:27.761Z,75.61
2023-01-19T11:16:27.774Z,73.98
2023-01-19T11:17:27.712Z,73.92
2023-01-19T11:18:27.712Z,75.50
2023-01-19T11:19:27.702Z,74.91
2023-01-19T11:20:27.656Z,77.10
2023-01-19T11:21:27.646Z,77.73
2023-01-19T11:22:27.621Z,77.96
2023-01-19T11:23:27.603Z,76.15
2023-01-19T11:24:27.606Z,75.94
2023-01-19T11:25:27.595Z,72.73
2023-01-19T11:26:27.544Z,73.74
2023-01-19T11:27:27.527Z,74.09
2023-01-19T11:28:27.510Z,74.49
2023-01-19T11:29:27.502Z,75.86
2023-01-19T11:30:27.505Z,72.99
2023-01-19T11:31:27.578Z,74.98
2023-01-19T11:32:27.431Z,75.74
2023-01-19T11:33:27.432Z,75.28
2023-01-19T11:34:27.425Z,75.79
2023-01-19T11:35:27.389Z,74.43
2023-01-19T11:36:27.494Z,74.36
2023-01-19T11:37:27.352Z,73.44
2023-01-19T11:38:27.353Z,74.63
2023-01-19T11:39:27.341Z,74.44
2023-01-19T11:40:27.298Z,72.71
2023-01-19T11:41:27.267Z,72.15
2023-01-19T11:42:27.248Z,73.87
2023-01-19T11:43:31.872Z,75.25
2023-01-19T11:44:28.243Z,71.80
2023-01-19T11:45:27.358Z,75.51
2023-01-19T11:46:27.203Z,73.13
2023-01-19T11:47:27.163Z,74.50
2023-01-19T11:48:27.139Z,73.45
2023-01-19T11:49:27.150Z,73.89
2023-01-19T11:50:27.106Z,74.98
2023-01-19T11:51:27.089Z,73.39
2023-01-19T11:52:27.066Z,73.64
2023-01-19T11:53:27.050Z,74.26
2023-01-19T11:54:27.060Z,73.02
2023-01-19T11:55:27.016Z,73.74
2023-01-19T11:56:26.998Z,70.29
2023-01-19T11:57:26.978Z,68.20
2023-01-19T11:58:26.980Z,69.69
2023-01-19T11:59:26.963Z,70.26
2023-01-19T12:00:26.925Z,70.88
2023-01-19T12:01:26.957Z,72.40
2023-01-19T12:02:26.932Z,72.69
2023-01-19T12:03:26.894Z,70.81
2023-01-19T12:04:26.872Z,68.68
2023-01-19T12:05:26.834Z,68.96
2023-01-19T12:06:26.832Z,73.14
2023-01-19T12:07:26.792Z,72.71
2023-01-19T12:08:26.772Z,71.27
2023-01-19T12:09:26.752Z,73.65
2023-01-19T12:10:26.738Z,71.28
2023-01-19T12:11:26.739Z,69.01
2023-01-19T12:12:26.693Z,65.99
2023-01-19T12:13:26.677Z,70.83
2023-01-19T12:14:26.702Z,72.80
2023-01-19T12:15:26.637Z,70.65
2023-01-19T12:16:26.660Z,71.50
2023-01-19T12:17:26.601Z,71.38
2023-01-19T12:18:26.582Z,68.71
2023-01-19T12:19:26.586Z,62.98
2023-01-19T12:20:26.555Z,65.94
2023-01-19T12:21:26.524Z,66.77
2023-01-19T12:22:26.503Z,69.52
2023-01-19T12:23:26.487Z,71.24
2023-01-19T12:24:26.532Z,70.56
2023-01-19T12:25:26.448Z,71.30
2023-01-19T12:26:26.432Z,72.76
2023-01-19T12:27:26.413Z,72.95
2023-01-19T12:28:26.391Z,71.13
2023-01-19T12:29:26.404Z,67.59
2023-01-19T12:30:26.370Z,69.99
2023-01-19T12:31:26.433Z,70.46
2023-01-19T12:32:26.327Z,67.97
2023-01-19T12:33:26.311Z,70.00
2023-01-19T12:34:26.309Z,71.14
2023-01-19T12:35:26.265Z,73.72
2023-01-19T12:36:26.250Z,72.55
2023-01-19T12:37:26.234Z,68.81
2023-01-19T12:38:26.208Z,73.14
2023-01-19T12:39:26.222Z,72.98
2023-01-19T12:40:26.179Z,70.28
2023-01-19T12:41:26.155Z,71.92
2023-01-19T12:42:26.163Z,75.13
2023-01-19T12:43:26.115Z,73.44
2023-01-19T12:44:26.127Z,73.49
2023-01-19T12:45:26.087Z,73.55
2023-01-19T12:46:26.091Z,74.24
2023-01-19T12:47:26.046Z,74.38
2023-01-19T12:48:26.024Z,74.56
2023-01-19T12:49:26.035Z,71.29
2023-01-19T12:50:25.982Z,72.75
2023-01-19T12:51:25.976Z,71.86
2023-01-19T12:52:25.977Z,67.54